createdAt,value
2023-05-09T00:04:03.129Z,71
2023-05-09T00:16:03.272Z,71
2023-05-09T00:28:03.032Z,71
2023-05-09T00:40:03.323Z,71
2023-05-09T00:52:03.161Z,71
2023-05-09T01:04:03.224Z,71
2023-05-09T01:16:03.313Z,71
2023-05-09T01:28:03.342Z,71
2023-05-09T01:40:03.169Z,71
2023-05-09T01:52:03.261Z,71
2023-05-09T02:04:03.306Z,71
2023-05-09T02:16:03.429Z,71
2023-05-09T02:28:03.232Z,71
2023-05-09T02:40:03.319Z,71
2023-05-09T02:52:03.347Z,71
2023-05-09T03:04:03.448Z,71
2023-05-09T03:16:03.343Z,71
2023-05-09T03:28:03.403Z,71
2023-05-09T03:40:03.218Z,71
2023-05-09T03:52:03.491Z,71
2023-05-09T04:04:03.419Z,71
2023-05-09T04:16:03.516Z,71
2023-05-09T04:28:03.320Z,71
2023-05-09T04:40:03.400Z,70.5
2023-05-09T04:52:03.448Z,70.5
2023-05-09T05:04:03.510Z,70.5
2023-05-09T05:16:03.383Z,70.5
2023-05-09T05:28:03.695Z,70
2023-05-09T05:40:03.497Z,70
2023-05-09T05:52:03.456Z,70
2023-05-09T06:04:03.435Z,70
2023-05-09T06:16:11.602Z,70
2023-05-09T06:28:03.531Z,70.5
2023-05-09T06:40:03.608Z,70
2023-05-09T06:52:03.428Z,70
2023-05-09T07:04:03.744Z,70
2023-05-09T07:16:03.620Z,70
2023-05-09T07:28:03.645Z,70
2023-05-09T07:40:03.506Z,70
2023-05-09T07:52:03.775Z,69
2023-05-09T08:04:03.683Z,69
2023-05-09T08:16:03.790Z,69
2023-05-09T08:28:04.141Z,68
2023-05-09T08:40:04.007Z,67.5
2023-05-09T08:52:03.663Z,66.5
2023-05-09T09:04:03.733Z,65.5
2023-05-09T09:16:03.647Z,65.5
2023-05-09T09:28:03.857Z,65
2023-05-09T09:40:03.685Z,64.5
2023-05-09T09:52:03.762Z,64.5
2023-05-09T10:04:03.662Z,64
2023-05-09T10:16:04.132Z,64
2023-05-09T10:28:03.761Z,63.5
2023-05-09T10:40:03.864Z,63
2023-05-09T10:52:03.670Z,63
2023-05-09T11:04:03.993Z,62
2023-05-09T11:16:03.852Z,62
2023-05-09T11:28:03.881Z,60.5
2023-05-09T11:40:03.700Z,61.5
2023-05-09T11:52:03.994Z,62.5
2023-05-09T12:04:03.874Z,62
2023-05-09T12:16:03.964Z,63
2023-05-09T12:28:03.743Z,62
2023-05-09T12:40:03.959Z,59.5
2023-05-09T12:52:04.814Z,58
2023-05-09T13:04:04.022Z,56
2023-05-09T13:16:03.861Z,55.5
2023-05-09T13:28:04.773Z,53.5
2023-05-09T13:40:03.896Z,52
2023-05-09T13:52:03.968Z,50.5
2023-05-09T14:04:04.084Z,49
2023-05-09T14:16:04.165Z,47.5
2023-05-09T14:28:03.927Z,46
2023-05-09T14:40:04.017Z,45.5
2023-05-09T14:52:04.086Z,46
2023-05-09T15:04:04.165Z,45
2023-05-09T15:16:03.978Z,44.5
2023-05-09T15:28:04.035Z,44.5
2023-05-09T15:40:04.112Z,44.5
2023-05-09T15:52:04.152Z,44
2023-05-09T16:04:04.050Z,43.5
2023-05-09T16:16:04.362Z,43.5
2023-05-09T16:28:04.110Z,43.5
2023-05-09T16:40:04.175Z,43
2023-05-09T16:52:04.017Z,42.5
2023-05-09T17:04:04.367Z,42
2023-05-09T17:16:04.217Z,44
2023-05-09T17:28:04.222Z,49.5
2023-05-09T17:40:04.084Z,51.5
2023-05-09T17:52:04.381Z,50.5
2023-05-09T18:04:04.206Z,51
2023-05-09T18:16:04.529Z,52
2023-05-09T18:28:04.102Z,52
2023-05-09T18:40:04.391Z,48.5
2023-05-09T18:52:04.290Z,50
2023-05-09T19:04:04.509Z,52
2023-05-09T19:16:04.800Z,57
2023-05-09T19:28:04.977Z,58
2023-05-09T19:40:04.241Z,59
2023-05-09T19:52:05.067Z,60
2023-05-09T20:04:04.825Z,60.5
2023-05-09T20:16:04.518Z,61.5
2023-05-09T20:28:04.418Z,62
2023-05-09T20:40:04.396Z,62.5
2023-05-09T20:52:04.808Z,62.5
2023-05-09T21:04:04.625Z,62
2023-05-09T21:16:04.407Z,61
2023-05-09T21:28:04.549Z,61
2023-05-09T21:40:05.665Z,60.5
2023-05-09T21:52:04.432Z,60.5
2023-05-09T22:04:04.439Z,60.5
2023-05-09T22:16:04.652Z,60.5
2023-05-09T22:28:04.455Z,60.5
2023-05-09T22:40:04.441Z,60.5
2023-05-09T22:52:04.403Z,60.5
2023-05-09T23:04:04.547Z,60.5
2023-05-09T23:16:04.580Z,60
2023-05-09T23:28:04.505Z,60
2023-05-09T23:40:04.441Z,60
2023-05-09T23:52:04.637Z,60
